sensor_id;sensor_type;location;lat;lon;timestamp;P1;durP1;ratioP1;P2;durP2;ratioP2
7737;SDS011;29398;45.328;5.558;2022-10-03T00:02:47;1.92;;;1.10;;
7737;SDS011;29398;45.328;5.558;2022-10-03T00:03:55;0.90;;;0.82;;
7737;SDS011;29398;45.328;5.558;2022-10-03T00:05:11;2.03;;;1.00;;
7737;SDS011;29398;45.328;5.558;2022-10-03T00:06:21;1.90;;;1.00;;
7737;SDS011;29398;45.328;5.558;2022-10-03T00:07:41;1.77;;;1.00;;
7737;SDS011;29398;45.328;5.558;2022-10-03T00:09:11;2.42;;;1.10;;
7737;SDS011;29398;45.328;5.558;2022-10-03T00:10:37;2.42;;;0.95;;
7737;SDS011;29398;45.328;5.558;2022-10-03T00:12:01;1.55;;;1.00;;
7737;SDS011;29398;45.328;5.558;2022-10-03T00:13:11;1.75;;;1.05;;
7737;SDS011;29398;45.328;5.558;2022-10-03T00:14:16;1.10;;;0.98;;
7737;SDS011;29398;45.328;5.558;2022-10-03T00:15:27;1.30;;;1.10;;
7737;SDS011;29398;45.328;5.558;2022-10-03T00:16:37;3.75;;;1.00;;
7737;SDS011;29398;45.328;5.558;2022-10-03T00:17:44;1.73;;;0.80;;
7737;SDS011;29398;45.328;5.558;2022-10-03T00:19:07;1.50;;;0.90;;
7737;SDS011;29398;45.328;5.558;2022-10-03T00:20:29;2.35;;;0.80;;
7737;SDS011;29398;45.328;5.558;2022-10-03T00:21:43;1.17;;;0.98;;
7737;SDS011;29398;45.328;5.558;2022-10-03T00:22:50;3.50;;;1.27;;
7737;SDS011;29398;45.328;5.558;2022-10-03T00:23:56;1.13;;;0.65;;
7737;SDS011;29398;45.328;5.558;2022-10-03T00:25:11;1.80;;;1.08;;
7737;SDS011;29398;45.328;5.558;2022-10-03T00:26:24;1.45;;;0.90;;
7737;SDS011;29398;45.328;5.558;2022-10-03T00:27:36;1.05;;;1.00;;
7737;SDS011;29398;45.328;5.558;2022-10-03T00:28:44;1.30;;;0.90;;
7737;SDS011;29398;45.328;5.558;2022-10-03T00:29:59;1.95;;;0.90;;
7737;SDS011;29398;45.328;5.558;2022-10-03T00:31:06;1.95;;;0.80;;
7737;SDS011;29398;45.328;5.558;2022-10-03T00:32:16;2.45;;;1.13;;
7737;SDS011;29398;45.328;5.558;2022-10-03T00:33:25;2.08;;;1.05;;
7737;SDS011;29398;45.328;5.558;2022-10-03T00:35:37;4.70;;;1.20;;
7737;SDS011;29398;45.328;5.558;2022-10-03T00:36:57;3.63;;;1.08;;
7737;SDS011;29398;45.328;5.558;2022-10-03T00:38:17;2.60;;;1.20;;
7737;SDS011;29398;45.328;5.558;2022-10-03T00:39:47;1.35;;;0.90;;
7737;SDS011;29398;45.328;5.558;2022-10-03T00:41:03;6.15;;;1.27;;
7737;SDS011;29398;45.328;5.558;2022-10-03T00:42:23;1.75;;;1.25;;
7737;SDS011;29398;45.328;5.558;2022-10-03T00:47:19;3.50;;;1.20;;
7737;SDS011;29398;45.328;5.558;2022-10-03T00:48:38;2.28;;;1.10;;
7737;SDS011;29398;45.328;5.558;2022-10-03T00:50:06;3.92;;;1.10;;
7737;SDS011;29398;45.328;5.558;2022-10-03T00:51:16;1.45;;;1.02;;
7737;SDS011;29398;45.328;5.558;2022-10-03T00:54:20;2.58;;;1.00;;
7737;SDS011;29398;45.328;5.558;2022-10-03T00:55:39;1.85;;;1.00;;
7737;SDS011;29398;45.328;5.558;2022-10-03T00:56:58;2.95;;;1.15;;
7737;SDS011;29398;45.328;5.558;2022-10-03T00:58:08;2.95;;;1.02;;
7737;SDS011;29398;45.328;5.558;2022-10-03T00:59:15;1.90;;;1.23;;
7737;SDS011;29398;45.328;5.558;2022-10-03T01:00:27;3.00;;;1.35;;
7737;SDS011;29398;45.328;5.558;2022-10-03T01:01:32;1.48;;;0.77;;
7737;SDS011;29398;45.328;5.558;2022-10-03T01:02:42;1.70;;;1.00;;
7737;SDS011;29398;45.328;5.558;2022-10-03T01:03:54;1.00;;;0.80;;
7737;SDS011;29398;45.328;5.558;2022-10-03T01:05:12;3.80;;;1.15;;
7737;SDS011;29398;45.328;5.558;2022-10-03T01:06:19;3.22;;;1.05;;
7737;SDS011;29398;45.328;5.558;2022-10-03T01:07:29;1.70;;;1.00;;
7737;SDS011;29398;45.328;5.558;2022-10-03T01:08:42;2.78;;;0.98;;
7737;SDS011;29398;45.328;5.558;2022-10-03T01:10:14;2.45;;;1.00;;
7737;SDS011;29398;45.328;5.558;2022-10-03T01:11:24;4.00;;;1.05;;
7737;SDS011;29398;45.328;5.558;2022-10-03T01:12:52;1.73;;;1.00;;
7737;SDS011;29398;45.328;5.558;2022-10-03T01:15:02;3.00;;;1.25;;
7737;SDS011;29398;45.328;5.558;2022-10-03T01:16:13;2.95;;;0.93;;
7737;SDS011;29398;45.328;5.558;2022-10-03T01:18:30;1.40;;;1.00;;
7737;SDS011;29398;45.328;5.558;2022-10-03T01:19:51;3.20;;;1.30;;
7737;SDS011;29398;45.328;5.558;2022-10-03T01:21:02;3.63;;;1.20;;
7737;SDS011;29398;45.328;5.558;2022-10-03T01:22:12;2.35;;;1.00;;
7737;SDS011;29398;45.328;5.558;2022-10-03T01:25:06;2.65;;;1.27;;
7737;SDS011;29398;45.328;5.558;2022-10-03T01:26:19;2.13;;;1.15;;
7737;SDS011;29398;45.328;5.558;2022-10-03T01:27:35;3.25;;;1.10;;
7737;SDS011;29398;45.328;5.558;2022-10-03T01:29:02;2.55;;;0.90;;
7737;SDS011;29398;45.328;5.558;2022-10-03T01:30:27;2.70;;;1.10;;
7737;SDS011;29398;45.328;5.558;2022-10-03T01:31:33;3.40;;;1.20;;
7737;SDS011;29398;45.328;5.558;2022-10-03T01:32:39;1.13;;;1.02;;
7737;SDS011;29398;45.328;5.558;2022-10-03T01:33:45;2.10;;;1.20;;
7737;SDS011;29398;45.328;5.558;2022-10-03T01:34:53;5.22;;;1.00;;
7737;SDS011;29398;45.328;5.558;2022-10-03T01:36:04;2.05;;;1.10;;
7737;SDS011;29398;45.328;5.558;2022-10-03T01:37:12;2.63;;;0.90;;
7737;SDS011;29398;45.328;5.558;2022-10-03T01:38:19;1.88;;;1.10;;
7737;SDS011;29398;45.328;5.558;2022-10-03T01:39:27;2.10;;;1.17;;
7737;SDS011;29398;45.328;5.558;2022-10-03T01:40:33;1.73;;;1.00;;
7737;SDS011;29398;45.328;5.558;2022-10-03T01:41:43;1.73;;;1.23;;
7737;SDS011;29398;45.328;5.558;2022-10-03T01:42:53;1.55;;;1.10;;
7737;SDS011;29398;45.328;5.558;2022-10-03T01:44:03;1.65;;;1.15;;
7737;SDS011;29398;45.328;5.558;2022-10-03T01:45:21;1.92;;;1.30;;
7737;SDS011;29398;45.328;5.558;2022-10-03T01:46:31;1.42;;;1.10;;
7737;SDS011;29398;45.328;5.558;2022-10-03T01:47:38;1.60;;;0.95;;
7737;SDS011;29398;45.328;5.558;2022-10-03T01:48:52;3.00;;;1.30;;
7737;SDS011;29398;45.328;5.558;2022-10-03T01:50:01;1.92;;;1.10;;
7737;SDS011;29398;45.328;5.558;2022-10-03T01:51:08;1.10;;;1.00;;
7737;SDS011;29398;45.328;5.558;2022-10-03T01:52:14;2.22;;;1.05;;
7737;SDS011;29398;45.328;5.558;2022-10-03T01:53:25;1.77;;;1.02;;
7737;SDS011;29398;45.328;5.558;2022-10-03T01:54:36;2.20;;;1.20;;
7737;SDS011;29398;45.328;5.558;2022-10-03T01:55:45;3.67;;;1.17;;
7737;SDS011;29398;45.328;5.558;2022-10-03T01:56:51;1.75;;;1.00;;
7737;SDS011;29398;45.328;5.558;2022-10-03T01:57:59;1.33;;;0.90;;
7737;SDS011;29398;45.328;5.558;2022-10-03T01:59:03;5.65;;;1.20;;
7737;SDS011;29398;45.328;5.558;2022-10-03T02:00:09;1.98;;;0.90;;
7737;SDS011;29398;45.328;5.558;2022-10-03T02:01:18;1.92;;;1.00;;
7737;SDS011;29398;45.328;5.558;2022-10-03T02:02:27;3.17;;;1.00;;
7737;SDS011;29398;45.328;5.558;2022-10-03T02:03:34;1.58;;;1.00;;
7737;SDS011;29398;45.328;5.558;2022-10-03T02:04:44;1.60;;;0.93;;
7737;SDS011;29398;45.328;5.558;2022-10-03T02:05:53;1.70;;;0.88;;
7737;SDS011;29398;45.328;5.558;2022-10-03T02:07:02;2.42;;;1.00;;
7737;SDS011;29398;45.328;5.558;2022-10-03T02:08:06;2.17;;;0.90;;
7737;SDS011;29398;45.328;5.558;2022-10-03T02:09:28;1.17;;;0.85;;
7737;SDS011;29398;45.328;5.558;2022-10-03T02:10:35;4.05;;;0.82;;
7737;SDS011;29398;45.328;5.558;2022-10-03T02:11:52;0.93;;;0.82;;
7737;SDS011;29398;45.328;5.558;2022-10-03T02:13:04;1.52;;;0.90;;
7737;SDS011;29398;45.328;5.558;2022-10-03T02:14:16;3.05;;;1.10;;
7737;SDS011;29398;45.328;5.558;2022-10-03T02:15:23;2.05;;;0.90;;
7737;SDS011;29398;45.328;5.558;2022-10-03T02:16:29;1.48;;;0.90;;
7737;SDS011;29398;45.328;5.558;2022-10-03T02:17:40;1.50;;;0.85;;
7737;SDS011;29398;45.328;5.558;2022-10-03T02:18:48;3.40;;;1.00;;
7737;SDS011;29398;45.328;5.558;2022-10-03T02:19:54;1.83;;;0.90;;
7737;SDS011;29398;45.328;5.558;2022-10-03T02:21:05;2.70;;;1.08;;
7737;SDS011;29398;45.328;5.558;2022-10-03T02:22:13;1.63;;;1.08;;
7737;SDS011;29398;45.328;5.558;2022-10-03T02:23:24;1.00;;;0.77;;
7737;SDS011;29398;45.328;5.558;2022-10-03T02:24:40;1.77;;;0.90;;
7737;SDS011;29398;45.328;5.558;2022-10-03T02:25:51;2.65;;;1.13;;
7737;SDS011;29398;45.328;5.558;2022-10-03T02:27:06;1.92;;;0.80;;
7737;SDS011;29398;45.328;5.558;2022-10-03T02:28:27;2.83;;;0.95;;
7737;SDS011;29398;45.328;5.558;2022-10-03T02:29:50;2.83;;;1.17;;
7737;SDS011;29398;45.328;5.558;2022-10-03T02:31:14;2.88;;;1.13;;
7737;SDS011;29398;45.328;5.558;2022-10-03T02:32:40;4.32;;;1.10;;
7737;SDS011;29398;45.328;5.558;2022-10-03T02:34:15;3.17;;;1.10;;
7737;SDS011;29398;45.328;5.558;2022-10-03T02:37:15;1.38;;;0.88;;
7737;SDS011;29398;45.328;5.558;2022-10-03T02:38:52;1.45;;;0.88;;
7737;SDS011;29398;45.328;5.558;2022-10-03T02:50:26;2.55;;;0.80;;
7737;SDS011;29398;45.328;5.558;2022-10-03T02:52:08;2.72;;;1.00;;
7737;SDS011;29398;45.328;5.558;2022-10-03T02:55:22;1.30;;;0.82;;
7737;SDS011;29398;45.328;5.558;2022-10-03T02:56:59;3.63;;;1.05;;
7737;SDS011;29398;45.328;5.558;2022-10-03T02:58:41;1.98;;;0.95;;
7737;SDS011;29398;45.328;5.558;2022-10-03T03:00:04;2.60;;;1.00;;
7737;SDS011;29398;45.328;5.558;2022-10-03T03:06:36;3.67;;;1.40;;
7737;SDS011;29398;45.328;5.558;2022-10-03T03:09:43;3.50;;;1.50;;
7737;SDS011;29398;45.328;5.558;2022-10-03T03:11:03;2.63;;;1.48;;
7737;SDS011;29398;45.328;5.558;2022-10-03T03:12:25;3.25;;;1.05;;
7737;SDS011;29398;45.328;5.558;2022-10-03T03:13:44;1.77;;;1.05;;
7737;SDS011;29398;45.328;5.558;2022-10-03T03:15:09;2.13;;;1.00;;
7737;SDS011;29398;45.328;5.558;2022-10-03T03:16:47;3.60;;;1.35;;
7737;SDS011;29398;45.328;5.558;2022-10-03T03:18:01;3.10;;;1.30;;
7737;SDS011;29398;45.328;5.558;2022-10-03T03:19:14;2.13;;;1.13;;
7737;SDS011;29398;45.328;5.558;2022-10-03T03:20:41;3.15;;;0.90;;
7737;SDS011;29398;45.328;5.558;2022-10-03T03:21:56;1.58;;;1.02;;
7737;SDS011;29398;45.328;5.558;2022-10-03T03:23:11;2.20;;;0.90;;
7737;SDS011;29398;45.328;5.558;2022-10-03T03:24:32;1.45;;;1.00;;
7737;SDS011;29398;45.328;5.558;2022-10-03T03:25:58;1.02;;;0.70;;
7737;SDS011;29398;45.328;5.558;2022-10-03T03:27:37;3.10;;;1.08;;
7737;SDS011;29398;45.328;5.558;2022-10-03T03:28:51;3.03;;;1.20;;
7737;SDS011;29398;45.328;5.558;2022-10-03T03:30:04;3.00;;;1.10;;
7737;SDS011;29398;45.328;5.558;2022-10-03T03:31:10;3.83;;;1.30;;
7737;SDS011;29398;45.328;5.558;2022-10-03T03:32:19;3.40;;;1.10;;
7737;SDS011;29398;45.328;5.558;2022-10-03T03:33:32;4.20;;;1.15;;
7737;SDS011;29398;45.328;5.558;2022-10-03T03:34:49;1.50;;;0.90;;
7737;SDS011;29398;45.328;5.558;2022-10-03T03:35:58;2.25;;;1.00;;
7737;SDS011;29398;45.328;5.558;2022-10-03T03:37:08;2.72;;;1.23;;
7737;SDS011;29398;45.328;5.558;2022-10-03T03:38:18;2.13;;;1.00;;
7737;SDS011;29398;45.328;5.558;2022-10-03T03:39:33;1.58;;;1.00;;
7737;SDS011;29398;45.328;5.558;2022-10-03T03:40:50;3.50;;;1.40;;
7737;SDS011;29398;45.328;5.558;2022-10-03T03:42:08;3.05;;;1.40;;
7737;SDS011;29398;45.328;5.558;2022-10-03T03:43:30;2.67;;;1.42;;
7737;SDS011;29398;45.328;5.558;2022-10-03T03:44:46;3.65;;;1.33;;
7737;SDS011;29398;45.328;5.558;2022-10-03T03:46:04;3.60;;;1.15;;
7737;SDS011;29398;45.328;5.558;2022-10-03T03:47:23;3.70;;;1.50;;
7737;SDS011;29398;45.328;5.558;2022-10-03T03:48:57;2.53;;;1.20;;
7737;SDS011;29398;45.328;5.558;2022-10-03T03:50:11;2.20;;;1.25;;
7737;SDS011;29398;45.328;5.558;2022-10-03T03:51:28;3.05;;;1.00;;
7737;SDS011;29398;45.328;5.558;2022-10-03T03:52:37;1.92;;;1.48;;
7737;SDS011;29398;45.328;5.558;2022-10-03T03:54:04;2.38;;;1.27;;
7737;SDS011;29398;45.328;5.558;2022-10-03T03:55:37;3.85;;;1.40;;
7737;SDS011;29398;45.328;5.558;2022-10-03T03:56:50;3.33;;;1.38;;
7737;SDS011;29398;45.328;5.558;2022-10-03T03:58:05;2.13;;;1.10;;
7737;SDS011;29398;45.328;5.558;2022-10-03T03:59:20;3.03;;;1.40;;
7737;SDS011;29398;45.328;5.558;2022-10-03T04:00:37;2.33;;;1.20;;
7737;SDS011;29398;45.328;5.558;2022-10-03T04:01:52;4.75;;;1.40;;
7737;SDS011;29398;45.328;5.558;2022-10-03T04:03:08;3.42;;;1.60;;
7737;SDS011;29398;45.328;5.558;2022-10-03T04:04:15;2.35;;;1.10;;
7737;SDS011;29398;45.328;5.558;2022-10-03T04:05:36;3.42;;;1.30;;
7737;SDS011;29398;45.328;5.558;2022-10-03T04:06:54;2.60;;;1.30;;
7737;SDS011;29398;45.328;5.558;2022-10-03T04:08:22;2.05;;;1.23;;
7737;SDS011;29398;45.328;5.558;2022-10-03T04:11:06;2.42;;;1.50;;
7737;SDS011;29398;45.328;5.558;2022-10-03T04:12:21;1.92;;;1.13;;
7737;SDS011;29398;45.328;5.558;2022-10-03T04:13:44;5.30;;;1.50;;
7737;SDS011;29398;45.328;5.558;2022-10-03T04:15:03;2.30;;;1.63;;
7737;SDS011;29398;45.328;5.558;2022-10-03T04:16:27;2.05;;;1.40;;
7737;SDS011;29398;45.328;5.558;2022-10-03T04:18:19;3.08;;;1.70;;
7737;SDS011;29398;45.328;5.558;2022-10-03T04:19:54;4.20;;;1.73;;
7737;SDS011;29398;45.328;5.558;2022-10-03T04:21:13;1.73;;;1.60;;
7737;SDS011;29398;45.328;5.558;2022-10-03T04:22:41;2.78;;;1.70;;
7737;SDS011;29398;45.328;5.558;2022-10-03T04:23:55;2.40;;;1.73;;
7737;SDS011;29398;45.328;5.558;2022-10-03T04:25:18;4.07;;;2.13;;
7737;SDS011;29398;45.328;5.558;2022-10-03T04:26:42;2.63;;;1.90;;
7737;SDS011;29398;45.328;5.558;2022-10-03T04:28:05;2.72;;;1.58;;
7737;SDS011;29398;45.328;5.558;2022-10-03T04:29:41;4.07;;;1.90;;
7737;SDS011;29398;45.328;5.558;2022-10-03T04:30:49;3.40;;;1.90;;
7737;SDS011;29398;45.328;5.558;2022-10-03T04:32:00;3.15;;;1.88;;
7737;SDS011;29398;45.328;5.558;2022-10-03T04:33:13;3.15;;;1.70;;
7737;SDS011;29398;45.328;5.558;2022-10-03T04:34:30;3.80;;;1.92;;
7737;SDS011;29398;45.328;5.558;2022-10-03T04:35:52;2.20;;;1.73;;
7737;SDS011;29398;45.328;5.558;2022-10-03T04:37:25;4.00;;;1.90;;
7737;SDS011;29398;45.328;5.558;2022-10-03T04:38:38;3.03;;;1.65;;
7737;SDS011;29398;45.328;5.558;2022-10-03T04:39:49;2.38;;;1.90;;
7737;SDS011;29398;45.328;5.558;2022-10-03T04:41:02;2.70;;;1.48;;
7737;SDS011;29398;45.328;5.558;2022-10-03T04:42:12;4.05;;;2.05;;
7737;SDS011;29398;45.328;5.558;2022-10-03T04:43:29;2.40;;;1.83;;
7737;SDS011;29398;45.328;5.558;2022-10-03T04:44:42;2.92;;;2.10;;
7737;SDS011;29398;45.328;5.558;2022-10-03T04:46:00;3.00;;;2.10;;
7737;SDS011;29398;45.328;5.558;2022-10-03T04:47:15;3.97;;;2.22;;
7737;SDS011;29398;45.328;5.558;2022-10-03T04:49:29;3.85;;;2.60;;
7737;SDS011;29398;45.328;5.558;2022-10-03T04:50:36;3.65;;;2.72;;
7737;SDS011;29398;45.328;5.558;2022-10-03T04:51:49;5.25;;;3.20;;
7737;SDS011;29398;45.328;5.558;2022-10-03T04:53:01;3.30;;;3.10;;
7737;SDS011;29398;45.328;5.558;2022-10-03T04:54:22;5.90;;;3.40;;
7737;SDS011;29398;45.328;5.558;2022-10-03T04:55:37;5.35;;;4.15;;
7737;SDS011;29398;45.328;5.558;2022-10-03T04:56:43;5.05;;;3.75;;
7737;SDS011;29398;45.328;5.558;2022-10-03T04:57:54;5.32;;;4.63;;
7737;SDS011;29398;45.328;5.558;2022-10-03T04:59:02;6.07;;;4.53;;
7737;SDS011;29398;45.328;5.558;2022-10-03T05:00:20;5.20;;;4.78;;
7737;SDS011;29398;45.328;5.558;2022-10-03T05:01:25;5.80;;;5.20;;
7737;SDS011;29398;45.328;5.558;2022-10-03T05:02:39;5.93;;;5.38;;
7737;SDS011;29398;45.328;5.558;2022-10-03T05:03:51;6.30;;;5.70;;
7737;SDS011;29398;45.328;5.558;2022-10-03T05:05:07;6.68;;;5.78;;
7737;SDS011;29398;45.328;5.558;2022-10-03T05:06:34;7.88;;;6.13;;
7737;SDS011;29398;45.328;5.558;2022-10-03T05:07:49;8.02;;;6.30;;
7737;SDS011;29398;45.328;5.558;2022-10-03T05:08:58;7.60;;;6.72;;
7737;SDS011;29398;45.328;5.558;2022-10-03T05:10:19;7.38;;;6.78;;
7737;SDS011;29398;45.328;5.558;2022-10-03T05:11:35;8.32;;;7.22;;
7737;SDS011;29398;45.328;5.558;2022-10-03T05:12:46;8.55;;;7.85;;
7737;SDS011;29398;45.328;5.558;2022-10-03T05:13:58;8.07;;;7.43;;
7737;SDS011;29398;45.328;5.558;2022-10-03T05:15:11;8.90;;;8.15;;
7737;SDS011;29398;45.328;5.558;2022-10-03T05:16:23;9.50;;;8.15;;
7737;SDS011;29398;45.328;5.558;2022-10-03T05:17:39;9.68;;;8.77;;
7737;SDS011;29398;45.328;5.558;2022-10-03T05:18:46;8.75;;;8.05;;
7737;SDS011;29398;45.328;5.558;2022-10-03T05:20:02;9.18;;;8.38;;
7737;SDS011;29398;45.328;5.558;2022-10-03T05:21:30;9.60;;;8.60;;
7737;SDS011;29398;45.328;5.558;2022-10-03T05:22:41;9.70;;;8.82;;
7737;SDS011;29398;45.328;5.558;2022-10-03T05:23:52;9.55;;;8.65;;
7737;SDS011;29398;45.328;5.558;2022-10-03T05:25:08;9.50;;;8.70;;
7737;SDS011;29398;45.328;5.558;2022-10-03T05:26:29;9.85;;;9.05;;
7737;SDS011;29398;45.328;5.558;2022-10-03T05:27:43;10.40;;;9.40;;
7737;SDS011;29398;45.328;5.558;2022-10-03T05:28:52;10.38;;;9.48;;
7737;SDS011;29398;45.328;5.558;2022-10-03T05:30:01;10.60;;;9.67;;
7737;SDS011;29398;45.328;5.558;2022-10-03T05:31:12;9.48;;;8.73;;
7737;SDS011;29398;45.328;5.558;2022-10-03T05:32:26;10.43;;;9.40;;
7737;SDS011;29398;45.328;5.558;2022-10-03T05:33:37;10.35;;;9.45;;
7737;SDS011;29398;45.328;5.558;2022-10-03T05:34:51;10.38;;;9.32;;
7737;SDS011;29398;45.328;5.558;2022-10-03T05:36:08;11.25;;;9.77;;
7737;SDS011;29398;45.328;5.558;2022-10-03T05:37:19;10.35;;;9.40;;
7737;SDS011;29398;45.328;5.558;2022-10-03T05:40:32;9.65;;;8.85;;
7737;SDS011;29398;45.328;5.558;2022-10-03T05:41:36;9.90;;;8.90;;
7737;SDS011;29398;45.328;5.558;2022-10-03T05:42:46;9.70;;;8.80;;
7737;SDS011;29398;45.328;5.558;2022-10-03T05:44:02;9.98;;;9.07;;
7737;SDS011;29398;45.328;5.558;2022-10-03T05:45:16;9.80;;;8.90;;
7737;SDS011;29398;45.328;5.558;2022-10-03T05:46:33;10.55;;;9.60;;
7737;SDS011;29398;45.328;5.558;2022-10-03T05:47:44;10.25;;;9.35;;
7737;SDS011;29398;45.328;5.558;2022-10-03T05:48:53;10.45;;;9.55;;
7737;SDS011;29398;45.328;5.558;2022-10-03T05:53:07;10.75;;;9.85;;
7737;SDS011;29398;45.328;5.558;2022-10-03T05:56:06;10.07;;;9.18;;
7737;SDS011;29398;45.328;5.558;2022-10-03T05:57:23;10.30;;;9.30;;
7737;SDS011;29398;45.328;5.558;2022-10-03T05:58:56;9.93;;;8.95;;
7737;SDS011;29398;45.328;5.558;2022-10-03T06:00:27;10.00;;;9.02;;
7737;SDS011;29398;45.328;5.558;2022-10-03T06:01:46;10.35;;;9.45;;
7737;SDS011;29398;45.328;5.558;2022-10-03T06:03:09;10.85;;;9.85;;
7737;SDS011;29398;45.328;5.558;2022-10-03T06:04:45;10.50;;;9.50;;
7737;SDS011;29398;45.328;5.558;2022-10-03T06:06:02;9.88;;;9.07;;
7737;SDS011;29398;45.328;5.558;2022-10-03T06:07:17;10.55;;;9.55;;
7737;SDS011;29398;45.328;5.558;2022-10-03T06:11:47;9.23;;;8.45;;
7737;SDS011;29398;45.328;5.558;2022-10-03T06:13:00;9.55;;;8.75;;
7737;SDS011;29398;45.328;5.558;2022-10-03T06:14:16;10.05;;;9.15;;
7737;SDS011;29398;45.328;5.558;2022-10-03T06:15:36;9.50;;;8.60;;
7737;SDS011;29398;45.328;5.558;2022-10-03T06:16:55;9.05;;;8.20;;
7737;SDS011;29398;45.328;5.558;2022-10-03T06:18:12;10.02;;;8.95;;
7737;SDS011;29398;45.328;5.558;2022-10-03T06:19:36;8.95;;;8.13;;
7737;SDS011;29398;45.328;5.558;2022-10-03T06:21:01;8.40;;;7.70;;
7737;SDS011;29398;45.328;5.558;2022-10-03T06:25:44;9.43;;;8.45;;
7737;SDS011;29398;45.328;5.558;2022-10-03T06:27:16;9.40;;;8.50;;
7737;SDS011;29398;45.328;5.558;2022-10-03T06:30:12;9.68;;;8.27;;
7737;SDS011;29398;45.328;5.558;2022-10-03T06:31:29;8.75;;;7.95;;
7737;SDS011;29398;45.328;5.558;2022-10-03T06:33:22;9.68;;;8.50;;
7737;SDS011;29398;45.328;5.558;2022-10-03T06:34:49;8.70;;;7.70;;
7737;SDS011;29398;45.328;5.558;2022-10-03T06:36:14;11.15;;;8.82;;
7737;SDS011;29398;45.328;5.558;2022-10-03T06:41:21;9.60;;;8.65;;
7737;SDS011;29398;45.328;5.558;2022-10-03T06:42:56;9.43;;;8.52;;
7737;SDS011;29398;45.328;5.558;2022-10-03T06:44:15;9.50;;;8.63;;
7737;SDS011;29398;45.328;5.558;2022-10-03T06:47:24;9.45;;;8.57;;
7737;SDS011;29398;45.328;5.558;2022-10-03T06:48:50;10.80;;;9.20;;
7737;SDS011;29398;45.328;5.558;2022-10-03T06:50:34;10.95;;;9.98;;
7737;SDS011;29398;45.328;5.558;2022-10-03T06:52:02;10.60;;;9.50;;
7737;SDS011;29398;45.328;5.558;2022-10-03T06:54:54;10.75;;;9.65;;
7737;SDS011;29398;45.328;5.558;2022-10-03T06:56:22;10.15;;;9.23;;
7737;SDS011;29398;45.328;5.558;2022-10-03T06:57:52;11.40;;;10.15;;
7737;SDS011;29398;45.328;5.558;2022-10-03T06:59:24;10.65;;;9.55;;
7737;SDS011;29398;45.328;5.558;2022-10-03T07:00:47;11.40;;;10.18;;
7737;SDS011;29398;45.328;5.558;2022-10-03T07:03:55;9.80;;;8.90;;
7737;SDS011;29398;45.328;5.558;2022-10-03T07:07:03;12.07;;;9.43;;
7737;SDS011;29398;45.328;5.558;2022-10-03T07:08:27;8.98;;;8.15;;
7737;SDS011;29398;45.328;5.558;2022-10-03T07:09:52;9.63;;;8.68;;
7737;SDS011;29398;45.328;5.558;2022-10-03T07:11:18;9.63;;;8.73;;
7737;SDS011;29398;45.328;5.558;2022-10-03T07:12:49;8.65;;;7.95;;
7737;SDS011;29398;45.328;5.558;2022-10-03T07:14:33;9.38;;;8.57;;
7737;SDS011;29398;45.328;5.558;2022-10-03T07:16:15;9.85;;;8.95;;
7737;SDS011;29398;45.328;5.558;2022-10-03T07:17:41;8.55;;;7.85;;
7737;SDS011;29398;45.328;5.558;2022-10-03T07:23:37;6.72;;;6.20;;
7737;SDS011;29398;45.328;5.558;2022-10-03T07:25:09;6.15;;;5.65;;
7737;SDS011;29398;45.328;5.558;2022-10-03T07:28:21;5.57;;;5.07;;
7737;SDS011;29398;45.328;5.558;2022-10-03T07:29:57;4.90;;;4.50;;
7737;SDS011;29398;45.328;5.558;2022-10-03T07:31:10;4.63;;;4.22;;
7737;SDS011;29398;45.328;5.558;2022-10-03T07:32:24;4.15;;;3.85;;
7737;SDS011;29398;45.328;5.558;2022-10-03T07:33:48;4.88;;;4.45;;
7737;SDS011;29398;45.328;5.558;2022-10-03T07:35:15;4.82;;;3.95;;
7737;SDS011;29398;45.328;5.558;2022-10-03T07:40:41;4.05;;;2.88;;
7737;SDS011;29398;45.328;5.558;2022-10-03T07:42:09;3.42;;;3.13;;
7737;SDS011;29398;45.328;5.558;2022-10-03T07:43:43;3.92;;;3.47;;
7737;SDS011;29398;45.328;5.558;2022-10-03T07:45:02;4.95;;;3.58;;
7737;SDS011;29398;45.328;5.558;2022-10-03T07:46:40;3.92;;;3.53;;
7737;SDS011;29398;45.328;5.558;2022-10-03T07:48:04;5.45;;;3.50;;
7737;SDS011;29398;45.328;5.558;2022-10-03T07:49:30;4.13;;;3.72;;
7737;SDS011;29398;45.328;5.558;2022-10-03T07:50:49;3.55;;;3.15;;
7737;SDS011;29398;45.328;5.558;2022-10-03T07:52:05;4.57;;;2.78;;
7737;SDS011;29398;45.328;5.558;2022-10-03T07:53:47;3.05;;;2.75;;
7737;SDS011;29398;45.328;5.558;2022-10-03T07:55:19;3.55;;;3.25;;
7737;SDS011;29398;45.328;5.558;2022-10-03T07:59:56;3.35;;;3.05;;
7737;SDS011;29398;45.328;5.558;2022-10-03T08:01:17;4.35;;;2.85;;
7737;SDS011;29398;45.328;5.558;2022-10-03T08:02:39;3.15;;;2.85;;
7737;SDS011;29398;45.328;5.558;2022-10-03T08:04:25;3.08;;;2.78;;
7737;SDS011;29398;45.328;5.558;2022-10-03T08:05:43;3.25;;;2.95;;
7737;SDS011;29398;45.328;5.558;2022-10-03T08:06:55;3.55;;;2.72;;
7737;SDS011;29398;45.328;5.558;2022-10-03T08:08:28;2.95;;;2.65;;
7737;SDS011;29398;45.328;5.558;2022-10-03T08:09:51;2.92;;;2.42;;
7737;SDS011;29398;45.328;5.558;2022-10-03T08:11:16;2.53;;;2.33;;
7737;SDS011;29398;45.328;5.558;2022-10-03T08:12:33;3.60;;;2.47;;
7737;SDS011;29398;45.328;5.558;2022-10-03T08:15:02;3.13;;;2.00;;
7737;SDS011;29398;45.328;5.558;2022-10-03T08:16:17;2.42;;;2.00;;
7737;SDS011;29398;45.328;5.558;2022-10-03T08:17:35;3.20;;;2.33;;
7737;SDS011;29398;45.328;5.558;2022-10-03T08:19:14;2.67;;;2.03;;
7737;SDS011;29398;45.328;5.558;2022-10-03T08:20:28;2.50;;;2.20;;
7737;SDS011;29398;45.328;5.558;2022-10-03T08:21:45;2.20;;;1.60;;
7737;SDS011;29398;45.328;5.558;2022-10-03T08:23:00;1.90;;;1.73;;
7737;SDS011;29398;45.328;5.558;2022-10-03T08:24:16;1.80;;;1.70;;
7737;SDS011;29398;45.328;5.558;2022-10-03T08:25:51;1.58;;;1.48;;
7737;SDS011;29398;45.328;5.558;2022-10-03T08:27:10;2.15;;;1.42;;
7737;SDS011;29398;45.328;5.558;2022-10-03T08:28:38;1.98;;;1.77;;
7737;SDS011;29398;45.328;5.558;2022-10-03T08:29:55;1.95;;;1.80;;
7737;SDS011;29398;45.328;5.558;2022-10-03T08:34:59;1.90;;;1.70;;
7737;SDS011;29398;45.328;5.558;2022-10-03T08:39:44;3.38;;;1.67;;
7737;SDS011;29398;45.328;5.558;2022-10-03T08:41:03;4.22;;;1.48;;
7737;SDS011;29398;45.328;5.558;2022-10-03T08:45:49;0.93;;;0.93;;
7737;SDS011;29398;45.328;5.558;2022-10-03T08:47:24;1.52;;;1.00;;
7737;SDS011;29398;45.328;5.558;2022-10-03T08:49:04;1.10;;;;;
7737;SDS011;29398;45.328;5.558;2022-10-03T08:50:48;1.48;;;1.00;;
7737;SDS011;29398;45.328;5.558;2022-10-03T08:52:07;1.23;;;1.13;;
7737;SDS011;29398;45.328;5.558;2022-10-03T08:56:54;1.60;;;1.02;;
7737;SDS011;29398;45.328;5.558;2022-10-03T08:58:12;2.15;;;1.10;;
7737;SDS011;29398;45.328;5.558;2022-10-03T09:01:11;1.25;;;1.00;;
7737;SDS011;29398;45.328;5.558;2022-10-03T09:02:46;1.13;;;1.02;;
7737;SDS011;29398;45.328;5.558;2022-10-03T09:05:56;1.25;;;1.05;;
7737;SDS011;29398;45.328;5.558;2022-10-03T09:07:37;1.45;;;1.17;;
7737;SDS011;29398;45.328;5.558;2022-10-03T09:09:04;2.10;;;1.40;;
7737;SDS011;29398;45.328;5.558;2022-10-03T09:10:24;1.92;;;1.45;;
7737;SDS011;29398;45.328;5.558;2022-10-03T09:11:41;1.08;;;1.08;;
7737;SDS011;29398;45.328;5.558;2022-10-03T09:13:12;1.33;;;1.23;;
7737;SDS011;29398;45.328;5.558;2022-10-03T09:14:31;3.30;;;1.52;;
7737;SDS011;29398;45.328;5.558;2022-10-03T09:18:17;5.72;;;1.33;;
7737;SDS011;29398;45.328;5.558;2022-10-03T09:19:40;1.70;;;1.30;;
7737;SDS011;29398;45.328;5.558;2022-10-03T09:21:23;1.42;;;1.23;;
7737;SDS011;29398;45.328;5.558;2022-10-03T09:24:06;1.35;;;1.20;;
7737;SDS011;29398;45.328;5.558;2022-10-03T09:25:32;1.40;;;1.30;;
7737;SDS011;29398;45.328;5.558;2022-10-03T09:31:23;1.75;;;1.30;;
7737;SDS011;29398;45.328;5.558;2022-10-03T09:32:54;1.92;;;1.30;;
7737;SDS011;29398;45.328;5.558;2022-10-03T09:34:24;1.25;;;1.08;;
7737;SDS011;29398;45.328;5.558;2022-10-03T09:35:54;2.47;;;1.10;;
7737;SDS011;29398;45.328;5.558;2022-10-03T09:37:20;2.13;;;1.38;;
7737;SDS011;29398;45.328;5.558;2022-10-03T09:38:42;2.83;;;1.20;;
7737;SDS011;29398;45.328;5.558;2022-10-03T09:41:54;1.88;;;1.00;;
7737;SDS011;29398;45.328;5.558;2022-10-03T09:44:57;1.85;;;1.20;;